Time;durP1;ratioP1;P1;durP2;ratioP2;P2;SDS_P1;SDS_P2;PMS_P1;PMS_P2;Temp;Humidity;BMP_temperature;BMP_pressure;BME280_temperature;BME280_humidity;BME280_pressure;Samples;Min_cycle;Max_cycle;Signal;HPM_P1;HPM_P2
2022/05/20 00:01:11;;;;;;;5.82;2.05;;;;;;;13.93;48.42;95699.47;4159747;28;20065;-53
2022/05/20 00:03:13;;;;;;;;;;;;;;;13.90;48.46;95700.63;4159729;28;20119;-51
2022/05/20 00:05:15;;;;;;;5.72;2.75;;;;;;;13.87;48.52;95697.47;4159978;28;19940;-48
2022/05/20 00:07:17;;;;;;;7.43;2.20;;;;;;;13.85;49.09;95700.28;4170283;28;20041;-51
2022/05/20 00:09:18;;;;;;;7.32;2.53;;;;;;;13.80;48.63;95702.53;4173915;28;20061;-51
2022/05/20 00:11:20;;;;;;;4.03;2.13;;;;;;;13.74;49.31;95697.88;4176107;28;20080;-51
2022/05/20 00:13:25;;;;;;;7.63;2.40;;;;;;;13.70;49.88;95689.47;4175771;28;20083;-53
2022/05/20 00:15:28;;;;;;;4.15;2.38;;;;;;;13.70;50.03;95696.50;4176035;28;20134;-55
2022/05/20 00:17:30;;;;;;;4.82;2.08;;;;;;;13.71;49.57;95693.75;4176092;28;20056;-53
2022/05/20 00:19:33;;;;;;;3.75;2.47;;;;;;;13.71;49.81;95706.09;4175764;28;20160;-54
2022/05/20 00:21:35;;;;;;;5.53;2.40;;;;;;;13.65;49.90;95698.78;4159508;28;20087;-53
2022/05/20 00:23:36;;;;;;;5.07;2.40;;;;;;;13.60;49.73;95703.72;4157886;28;20052;-53
2022/05/20 00:25:47;;;;;;;5.32;2.20;;;;;;;13.56;49.74;95708.44;4175941;28;20132;-52
2022/05/20 00:27:49;;;;;;;6.47;2.40;;;;;;;13.54;51.07;95717.47;4174175;28;20065;-51
2022/05/20 00:29:51;;;;;;;6.88;2.53;;;;;;;13.48;51.41;95709.19;4158806;28;20055;-52
2022/05/20 00:31:52;;;;;;;7.75;2.92;;;;;;;13.47;51.50;95712.00;4163810;28;20056;-52
2022/05/20 00:33:54;;;;;;;6.25;2.30;;;;;;;13.49;51.57;95715.31;4159985;28;20059;-50
2022/05/20 00:35:56;;;;;;;3.50;2.38;;;;;;;13.48;51.85;95719.72;4159317;28;20469;-53
2022/05/20 00:37:58;;;;;;;7.22;2.50;;;;;;;13.49;51.96;95723.19;4157869;28;20304;-48
2022/05/20 00:39:59;;;;;;;6.50;3.45;;;;;;;13.45;51.67;95725.31;4161081;28;20671;-51
2022/05/20 00:42:10;;;;;;;7.07;3.13;;;;;;;13.42;51.74;95730.88;4175671;28;20045;-52
2022/05/20 00:44:12;;;;;;;6.03;2.67;;;;;;;13.41;51.91;95729.22;4175698;28;20080;-51
2022/05/20 00:46:22;;;;;;;6.15;4.10;;;;;;;13.40;52.15;95727.56;4175591;28;20134;-50
2022/05/20 00:48:24;;;;;;;9.25;3.05;;;;;;;13.40;51.72;95724.94;4175464;28;20055;-54
2022/05/20 00:50:26;;;;;;;5.72;2.78;;;;;;;13.41;51.54;95726.56;4175825;28;20122;-54
2022/05/20 00:52:30;;;;;;;6.75;3.50;;;;;;;13.41;52.09;95728.38;4172395;28;20129;-51
2022/05/20 00:54:36;;;;;;;6.68;3.88;;;;;;;13.40;52.19;95724.94;4174319;28;20047;-51
2022/05/20 00:56:44;;;;;;;8.85;3.80;;;;;;;13.40;52.09;95726.72;4175850;28;20053;-53
2022/05/20 00:58:46;;;;;;;5.43;4.35;;;;;;;13.35;52.25;95729.00;4175596;28;20045;-55
2022/05/20 01:00:51;;;;;;;12.38;4.95;;;;;;;13.34;52.08;95725.53;4174260;28;20045;-52
2022/05/20 01:02:55;;;;;;;4.65;2.95;;;;;;;13.31;52.68;95728.44;4173907;28;20055;-48
2022/05/20 01:05:03;;;;;;;9.02;3.20;;;;;;;13.29;52.91;95725.13;4173115;28;20120;-53
2022/05/20 01:07:06;;;;;;;6.50;3.13;;;;;;;13.27;53.25;95727.06;4156493;28;20132;-52
2022/05/20 01:09:07;;;;;;;13.02;3.78;;;;;;;13.25;53.06;95724.59;4159186;28;20057;-54
2022/05/20 01:11:09;;;;;;;6.72;3.28;;;;;;;13.23;52.93;95725.75;4159051;28;20472;-51
2022/05/20 01:13:12;;;;;;;5.03;3.08;;;;;;;13.18;53.00;95717.44;4159170;28;20107;-50
2022/05/20 01:15:14;;;;;;;7.30;2.72;;;;;;;13.15;53.30;95715.13;4167865;28;20103;-53
2022/05/20 01:17:16;;;;;;;9.40;3.00;;;;;;;13.14;53.50;95718.72;4175124;28;20130;-52
2022/05/20 01:19:35;;;;;;;6.07;3.03;;;;;;;13.13;53.34;95714.44;4173925;28;20156;-55
2022/05/20 01:21:37;;;;;;;6.90;2.95;;;;;;;13.17;53.04;95713.19;4175112;28;20061;-51
2022/05/20 01:23:44;;;;;;;5.45;3.00;;;;;;;13.14;52.66;95709.03;4173876;28;20318;-50
2022/05/20 01:25:49;;;;;;;7.70;3.25;;;;;;;13.14;53.14;95710.81;4175505;28;20446;-54
2022/05/20 01:27:50;;;;;;;4.82;3.15;;;;;;;13.14;53.23;95705.56;4175410;28;20071;-53
2022/05/20 01:29:52;;;;;;;7.55;3.08;;;;;;;13.14;53.49;95705.56;4175534;28;20053;-52
2022/05/20 01:31:54;;;;;;;7.43;3.05;;;;;;;13.09;53.47;95701.59;4166810;28;20316;-51
2022/05/20 01:33:55;;;;;;;6.68;2.83;;;;;;;13.09;54.01;95709.47;4165258;28;20131;-51
2022/05/20 01:35:59;;;;;;;4.97;2.88;;;;;;;13.09;53.92;95713.91;4174330;28;20122;-54
2022/05/20 01:38:01;;;;;;;9.10;3.40;;;;;;;13.04;54.58;95710.91;4173784;28;20391;-53
2022/05/20 01:40:03;;;;;;;5.80;3.08;;;;;;;13.03;54.85;95710.06;4173926;28;20060;-51
2022/05/20 01:42:11;;;;;;;5.38;3.13;;;;;;;13.03;54.95;95714.50;4176609;28;20053;-52
2022/05/20 01:44:16;;;;;;;7.30;2.72;;;;;;;13.01;55.00;95711.19;4178232;28;20118;-52
2022/05/20 01:46:42;;;;;;;7.07;2.75;;;;;;;12.95;54.64;95712.63;4178311;28;20300;-53
2022/05/20 01:48:56;;;;;;;5.78;3.00;;;;;;;12.95;54.71;95709.16;4177856;28;20076;-54
2022/05/20 01:50:58;;;;;;;6.32;2.72;;;;;;;12.88;55.29;95716.81;4176319;28;20049;-51
2022/05/20 01:53:10;;;;;;;9.25;3.63;;;;;;;12.82;54.69;95707.75;4172463;28;20419;-54
2022/05/20 01:55:15;;;;;;;7.30;2.72;;;;;;;12.77;54.67;95714.41;4173321;28;20111;-54
2022/05/20 01:57:57;;;;;;;9.48;3.00;;;;;;;12.82;54.76;95715.63;4177962;28;20053;-49
2022/05/20 02:00:06;;;;;;;7.78;2.75;;;;;;;12.84;54.76;95713.69;4170576;28;20053;-51
2022/05/20 02:02:39;;;;;;;7.60;3.20;;;;;;;12.85;54.22;95722.38;4162608;28;20493;-51
2022/05/20 02:04:44;;;;;;;6.32;2.88;;;;;;;12.85;54.31;95717.94;4159197;28;20061;-50
2022/05/20 02:06:52;;;;;;;5.60;3.10;;;;;;;12.87;54.23;95721.25;4165439;28;20053;-51
2022/05/20 02:08:57;;;;;;;5.65;3.00;;;;;;;12.85;54.67;95711.88;4176853;28;20611;-53
2022/05/20 02:11:09;;;;;;;12.82;3.00;;;;;;;12.84;54.49;95718.94;4174383;28;20072;-51
2022/05/20 02:13:13;;;;;;;5.05;2.90;;;;;;;12.80;54.65;95719.34;4167549;28;20142;-51
2022/05/20 02:15:44;;;;;;;5.43;2.90;;;;;;;12.81;54.83;95727.09;4176363;28;20412;-53
2022/05/20 02:17:50;;;;;;;7.20;2.95;;;;;;;12.78;54.77;95723.97;4177328;28;20060;-53
2022/05/20 02:20:00;;;;;;;6.18;2.95;;;;;;;12.74;54.92;95723.41;4177404;28;20053;-53
2022/05/20 02:22:05;;;;;;;7.18;2.97;;;;;;;12.69;55.20;95725.63;4174955;28;20056;-53
2022/05/20 02:24:09;;;;;;;7.35;3.38;;;;;;;12.62;54.61;95722.78;4176079;28;20045;-50
2022/05/20 02:26:15;;;;;;;9.50;2.95;;;;;;;12.54;54.42;95719.22;4176058;28;20118;-52
2022/05/20 02:28:24;;;;;;;5.95;3.08;;;;;;;11.96;55.36;95726.38;4176188;28;20068;-51
2022/05/20 02:30:29;;;;;;;11.60;3.03;;;;;;;11.54;57.46;95731.09;4177487;28;20780;-51
2022/05/20 02:32:36;;;;;;;6.15;3.05;;;;;;;11.56;57.49;95727.38;4175463;28;20147;-53
2022/05/20 02:34:38;;;;;;;14.85;3.63;;;;;;;11.50;57.74;95732.34;4168103;28;20126;-52
2022/05/20 02:36:40;;;;;;;9.63;3.80;;;;;;;11.57;57.59;95736.06;4160811;28;20733;-51
2022/05/20 02:38:42;;;;;;;7.32;3.58;;;;;;;11.69;57.14;95729.69;4159239;28;20053;-53
2022/05/20 02:40:46;;;;;;;11.93;3.25;;;;;;;11.78;56.41;95723.59;4164786;28;20052;-50
2022/05/20 02:42:48;;;;;;;10.18;3.00;;;;;;;11.87;56.48;95730.66;4176971;28;20045;-55
2022/05/20 02:44:50;;;;;;;9.35;3.03;;;;;;;11.89;56.27;95730.50;4176993;28;20110;-50
2022/05/20 02:46:52;;;;;;;4.70;2.70;;;;;;;11.92;55.26;95725.00;4176891;28;20135;-53
2022/05/20 02:48:54;;;;;;;6.10;2.42;;;;;;;11.96;55.04;95715.03;4175219;28;20177;-50
2022/05/20 02:50:58;;;;;;;6.18;3.30;;;;;;;12.04;54.08;95723.03;4165781;28;20061;-53
2022/05/20 02:53:00;;;;;;;6.40;3.45;;;;;;;12.04;54.05;95710.72;4158679;28;20095;-52
2022/05/20 02:55:02;;;;;;;7.50;3.17;;;;;;;12.06;53.73;95714.03;4160524;28;20053;-51
2022/05/20 02:57:05;;;;;;;7.13;3.40;;;;;;;12.07;53.62;95714.88;4160725;28;20061;-50
2022/05/20 03:06:08;;;;;;;12.43;3.65;;;;;;;11.98;54.51;95713.06;4177265;28;20118;-51
2022/05/20 03:08:10;;;;;;;9.68;3.47;;;;;;;11.82;54.80;95709.22;4175693;28;20118;-50
2022/05/20 03:10:12;;;;;;;10.98;3.85;;;;;;;11.76;54.54;95714.22;4169482;28;20099;-53
2022/05/20 03:12:14;;;;;;;7.63;3.42;;;;;;;11.61;54.62;95719.06;4160751;28;20058;-55
2022/05/20 03:14:19;;;;;;;8.05;3.45;;;;;;;11.19;55.58;95722.84;4177093;28;20189;-52
2022/05/20 03:16:21;;;;;;;7.35;3.33;;;;;;;10.74;56.87;95718.09;4176782;28;20061;-51
2022/05/20 03:18:23;;;;;;;6.70;3.22;;;;;;;10.37;57.91;95723.09;4176482;28;20049;-53
2022/05/20 03:20:25;;;;;;;5.97;2.75;;;;;;;10.07;58.93;95724.72;4176920;28;20057;-53
2022/05/20 03:22:27;;;;;;;5.07;2.55;;;;;;;9.82;59.14;95725.97;4175149;28;20521;-53
2022/05/20 03:24:29;;;;;;;5.85;2.70;;;;;;;9.78;59.57;95714.09;4176608;28;20049;-51
2022/05/20 03:26:31;;;;;;;7.72;2.45;;;;;;;9.60;59.99;95719.91;4176475;28;20071;-49
2022/05/20 03:28:34;;;;;;;5.15;3.17;;;;;;;9.63;59.84;95726.69;4176651;28;20061;-51
2022/05/20 03:30:35;;;;;;;5.00;3.20;;;;;;;9.75;59.14;95720.44;4176520;28;20080;-54
2022/05/20 03:32:38;;;;;;;6.18;2.55;;;;;;;9.73;60.03;95729.38;4176282;28;20114;-51
2022/05/20 03:34:40;;;;;;;3.70;2.40;;;;;;;9.77;60.08;95723.75;4169381;28;20045;-51
2022/05/20 03:36:44;;;;;;;5.25;3.38;;;;;;;9.94;59.19;95735.41;4167971;28;20110;-53
2022/05/20 03:38:46;;;;;;;7.15;3.30;;;;;;;9.97;58.87;95736.94;4167728;28;20147;-51
2022/05/20 03:40:48;;;;;;;4.85;2.97;;;;;;;9.85;59.05;95736.16;4164528;28;20048;-51
2022/05/20 03:42:49;;;;;;;6.85;3.22;;;;;;;9.87;59.85;95738.66;4176456;28;20133;-51
2022/05/20 03:44:52;;;;;;;10.05;3.63;;;;;;;9.77;60.04;95742.06;4175964;28;20049;-51
2022/05/20 03:46:55;;;;;;;6.95;3.13;;;;;;;9.53;60.50;95752.78;4176093;28;20156;-52
2022/05/20 03:48:58;;;;;;;8.53;3.30;;;;;;;9.33;61.89;95754.41;4174834;28;20132;-50
2022/05/20 03:51:10;;;;;;;6.43;3.00;;;;;;;9.26;62.51;95765.50;4176241;28;20646;-51
2022/05/20 03:53:12;;;;;;;4.28;2.95;;;;;;;9.40;61.76;95763.44;4174827;28;20052;-55
2022/05/20 03:55:14;;;;;;;8.80;2.85;;;;;;;9.69;61.09;95768.03;4176023;28;20041;-56
2022/05/20 03:57:16;;;;;;;10.27;3.78;;;;;;;9.87;60.94;95760.41;4176355;28;20059;-53
2022/05/20 03:59:18;;;;;;;6.78;2.80;;;;;;;10.03;60.33;95768.66;4176595;28;20052;-53
2022/05/20 04:03:44;;;;;;;5.65;3.22;;;;;;;10.66;58.70;95771.16;4175014;28;20160;-52
2022/05/20 04:05:46;;;;;;;5.72;3.38;;;;;;;10.94;57.43;95766.13;4176063;28;20053;-52
2022/05/20 04:07:47;;;;;;;6.82;3.33;;;;;;;11.19;56.95;95770.03;4173207;28;20505;-50
2022/05/20 04:09:49;;;;;;;5.70;3.70;;;;;;;11.32;56.21;95763.72;4176056;28;20102;-52
2022/05/20 04:11:55;;;;;;;7.85;3.47;;;;;;;11.48;55.58;95767.41;4169169;28;20041;-50
2022/05/20 04:13:57;;;;;;;6.35;3.72;;;;;;;11.62;55.49;95766.19;4157890;28;20107;-54
2022/05/20 04:15:59;;;;;;;7.50;4.35;;;;;;;11.81;54.89;95765.34;4159333;28;20060;-54
2022/05/20 04:18:00;;;;;;;6.35;3.42;;;;;;;11.92;54.57;95766.19;4174574;28;20076;-55
2022/05/20 04:20:07;;;;;;;7.97;3.67;;;;;;;12.00;54.55;95756.63;4175780;28;20417;-53
2022/05/20 04:22:09;;;;;;;8.32;3.55;;;;;;;12.10;54.28;95753.97;4174389;28;20477;-55
2022/05/20 04:24:10;;;;;;;7.25;3.70;;;;;;;12.21;53.82;95760.84;4174367;28;20442;-52
2022/05/20 04:26:12;;;;;;;5.85;3.25;;;;;;;12.31;53.66;95756.41;4176008;28;20056;-49
2022/05/20 04:28:14;;;;;;;11.00;4.22;;;;;;;12.46;52.95;95754.94;4175969;28;20045;-54
2022/05/20 04:30:16;;;;;;;6.78;3.30;;;;;;;12.51;52.53;95759.78;4175758;28;20115;-50
2022/05/20 04:32:18;;;;;;;4.15;2.95;;;;;;;12.57;52.38;95753.94;4175594;28;20053;-49
2022/05/20 04:34:20;;;;;;;9.70;3.50;;;;;;;12.58;52.45;95758.22;4175774;28;20114;-50
2022/05/20 04:36:22;;;;;;;5.10;3.15;;;;;;;12.63;52.20;95753.34;4165421;28;20505;-55
2022/05/20 04:38:24;;;;;;;11.13;3.97;;;;;;;12.68;52.04;95761.63;4169056;28;20502;-52
2022/05/20 04:40:26;;;;;;;7.15;3.67;;;;;;;12.82;51.78;95767.38;4175949;28;20137;-51
2022/05/20 04:47:16;;;;;;;8.82;3.80;;;;;;;12.88;51.90;95772.03;4175345;28;20159;-49
2022/05/20 04:49:18;;;;;;;11.48;3.95;;;;;;;12.89;51.59;95771.09;4175578;28;20160;-51
2022/05/20 04:51:19;;;;;;;7.40;4.22;;;;;;;12.97;51.60;95775.59;4175694;28;20135;-50
2022/05/20 04:55:42;;;;;;;8.98;4.50;;;;;;;13.15;51.08;95786.16;4175652;28;20045;-54
2022/05/20 04:57:49;;;;;;;13.23;5.15;;;;;;;13.21;50.70;95790.84;4175616;28;20481;-54
2022/05/20 04:59:57;;;;;;;7.57;3.85;;;;;;;13.32;50.42;95788.84;4175825;28;20037;-51
2022/05/20 05:01:59;;;;;;;9.65;3.60;;;;;;;13.47;50.38;95783.88;4161513;28;20143;-49
2022/05/20 05:04:01;;;;;;;12.35;4.18;;;;;;;13.59;49.81;95784.47;4158577;28;20441;-51
2022/05/20 05:06:03;;;;;;;9.65;4.40;;;;;;;13.67;49.49;95786.38;4164459;28;20107;-53
2022/05/20 05:08:05;;;;;;;11.70;4.65;;;;;;;13.67;49.54;95787.19;4172673;28;20053;-54
2022/05/20 05:10:08;;;;;;;9.82;4.35;;;;;;;13.67;49.71;95792.44;4175545;28;20474;-54
2022/05/20 05:12:11;;;;;;;10.52;4.03;;;;;;;13.73;49.63;95791.03;4169619;28;20046;-51
2022/05/20 05:14:16;;;;;;;11.15;4.28;;;;;;;13.78;49.40;95783.50;4141854;28;20541;-51
2022/05/20 05:16:17;;;;;;;8.95;4.18;;;;;;;13.75;49.75;95791.72;4160831;28;20045;-52
2022/05/20 05:18:23;;;;;;;7.78;3.95;;;;;;;13.82;49.35;95794.56;4161348;28;20087;-52
2022/05/20 05:20:27;;;;;;;6.72;4.10;;;;;;;13.82;49.42;95790.09;4161822;28;20049;-54
2022/05/20 05:22:28;;;;;;;14.57;3.97;;;;;;;13.87;49.16;95784.38;4160165;28;20053;-52
2022/05/20 05:24:30;;;;;;;8.50;4.40;;;;;;;13.78;48.95;95787.94;4161692;28;20199;-53
2022/05/20 05:26:34;;;;;;;7.47;4.35;;;;;;;13.65;49.08;95790.94;4161820;28;20889;-54
2022/05/20 05:28:36;;;;;;;8.43;4.35;;;;;;;13.60;49.64;95788.78;4162056;28;20057;-52
2022/05/20 05:30:42;;;;;;;20.50;4.93;;;;;;;13.69;49.92;95784.41;4162032;28;20349;-50
2022/05/20 05:32:44;;;;;;;10.18;4.50;;;;;;;13.77;49.29;95791.56;4161585;28;20079;-53
2022/05/20 05:34:46;;;;;;;11.85;4.95;;;;;;;13.87;49.43;95785.22;4161922;28;20057;-50
2022/05/20 05:36:47;;;;;;;9.98;4.97;;;;;;;13.88;49.00;95793.94;4163442;28;20064;-51
2022/05/20 05:38:49;;;;;;;10.30;4.75;;;;;;;13.95;48.50;95791.53;4164125;28;20486;-55
2022/05/20 05:40:51;;;;;;;8.10;4.65;;;;;;;13.77;49.15;95788.94;4166533;28;20532;-55
2022/05/20 05:42:55;;;;;;;13.18;4.88;;;;;;;13.79;49.36;95784.31;4177937;28;20049;-52
2022/05/20 05:44:57;;;;;;;10.27;4.38;;;;;;;13.96;48.72;95787.91;4178155;28;20508;-53
2022/05/20 05:46:59;;;;;;;11.52;4.25;;;;;;;14.13;48.25;95779.97;4178264;28;20519;-52
2022/05/20 05:49:00;;;;;;;8.75;4.53;;;;;;;14.35;47.63;95780.44;4178017;28;20056;-52
2022/05/20 05:51:02;;;;;;;7.13;4.53;;;;;;;14.54;47.16;95784.69;4168612;28;20053;-54
2022/05/20 05:53:16;;;;;;;10.20;5.20;;;;;;;14.54;46.62;95774.13;4160090;28;20129;-51
2022/05/20 05:55:17;;;;;;;13.07;4.72;;;;;;;14.61;46.36;95777.81;4161797;28;20191;-51
2022/05/20 05:57:19;;;;;;;12.13;4.72;;;;;;;14.70;46.67;95778.69;4161017;28;20314;-53
2022/05/20 05:59:21;;;;;;;9.45;4.45;;;;;;;14.84;47.20;95785.16;4161728;28;20127;-51
2022/05/20 06:01:22;;;;;;;8.57;4.60;;;;;;;14.99;46.98;95778.28;4161614;28;20437;-51
2022/05/20 06:03:24;;;;;;;14.15;5.05;;;;;;;15.15;46.70;95783.63;4161228;28;20069;-50
2022/05/20 06:05:27;;;;;;;12.07;4.82;;;;;;;15.29;46.12;95781.34;4161817;28;20509;-52
2022/05/20 06:07:28;;;;;;;10.70;4.32;;;;;;;15.36;45.20;95777.09;4176275;28;20053;-52
2022/05/20 06:09:32;;;;;;;10.80;5.22;;;;;;;15.36;44.72;95769.97;4177977;28;20545;-49
2022/05/20 06:11:33;;;;;;;7.72;4.13;;;;;;;15.42;44.79;95773.75;4177448;28;20176;-50
2022/05/20 06:13:35;;;;;;;11.35;5.85;;;;;;;15.17;45.00;95772.91;4177652;28;20048;-55
2022/05/20 06:15:38;;;;;;;9.23;5.63;;;;;;;14.95;45.70;95775.16;4177579;28;20048;-51
2022/05/20 06:17:40;;;;;;;7.88;4.38;;;;;;;15.01;45.22;95778.94;4177329;28;20134;-53
2022/05/20 06:19:41;;;;;;;12.82;5.82;;;;;;;15.10;45.29;95778.00;4177657;28;20064;-54
2022/05/20 06:21:43;;;;;;;10.30;5.68;;;;;;;15.09;45.63;95768.41;4177312;28;20377;-54
2022/05/20 06:23:45;;;;;;;12.55;5.68;;;;;;;15.25;45.81;95766.81;4176144;28;20500;-55
2022/05/20 06:25:47;;;;;;;12.85;5.72;;;;;;;15.26;45.56;95769.28;4177281;28;20045;-52
2022/05/20 06:28:14;;;;;;;8.85;5.00;;;;;;;15.27;45.87;95770.09;4176457;28;20088;-50
2022/05/20 06:30:19;;;;;;;11.95;5.10;;;;;;;15.11;45.87;95769.09;4177615;28;20475;-52
2022/05/20 06:32:20;;;;;;;15.68;5.18;;;;;;;15.13;45.98;95767.13;4177330;28;20164;-52
2022/05/20 06:34:22;;;;;;;9.05;5.57;;;;;;;15.36;45.57;95766.53;4177583;28;20052;-54
2022/05/20 06:41:06;;;;;;;9.35;5.25;;;;;;;15.93;45.09;95758.63;4167912;28;20045;-51
2022/05/20 06:43:08;;;;;;;13.68;5.10;;;;;;;16.00;45.11;95763.25;4175692;28;20102;-53
2022/05/20 06:45:12;;;;;;;9.10;4.75;;;;;;;15.82;44.82;95769.56;4175703;28;20080;-54
2022/05/20 06:47:13;;;;;;;;;;;;;;;15.62;44.96;95770.84;4177267;28;20217;-54
2022/05/20 06:49:15;;;;;;;8.35;4.50;;;;;;;15.55;45.33;95765.38;4177261;28;19928;-49
2022/05/20 06:51:20;;;;;;;16.25;5.03;;;;;;;15.70;44.90;95768.19;4177069;28;20513;-53
2022/05/20 06:53:21;;;;;;;10.70;4.85;;;;;;;15.93;45.02;95766.56;4175709;28;20115;-52
2022/05/20 06:55:23;;;;;;;11.50;4.88;;;;;;;16.06;44.76;95759.97;4176914;28;20045;-51
2022/05/20 06:57:25;;;;;;;9.68;5.53;;;;;;;16.23;44.31;95761.59;4176775;28;20075;-53
2022/05/20 06:59:27;;;;;;;8.27;4.97;;;;;;;16.29;44.37;95755.63;4176845;28;20072;-50
2022/05/20 07:01:29;;;;;;;15.48;5.75;;;;;;;16.17;44.03;95759.59;4177104;28;20057;-50
2022/05/20 07:03:32;;;;;;;10.63;4.57;;;;;;;16.10;44.04;95762.09;4176441;28;20076;-53
2022/05/20 07:05:34;;;;;;;9.32;4.85;;;;;;;16.04;44.13;95759.31;4176916;28;20045;-53
2022/05/20 07:07:36;;;;;;;8.02;4.75;;;;;;;16.23;43.95;95752.84;4175529;28;20053;-54
2022/05/20 07:09:38;;;;;;;8.50;4.57;;;;;;;16.41;43.66;95742.03;4176886;28;20048;-53
2022/05/20 07:11:42;;;;;;;7.90;4.00;;;;;;;16.57;43.25;95747.28;4176830;28;20052;-50
2022/05/20 07:13:44;;;;;;;7.05;4.28;;;;;;;16.70;42.79;95749.41;4176767;28;20095;-50
2022/05/20 07:15:51;;;;;;;10.73;4.38;;;;;;;16.89;42.39;95754.31;4173272;28;20052;-53
2022/05/20 07:17:53;;;;;;;8.95;5.30;;;;;;;17.07;42.16;95756.69;4176378;28;20049;-51
2022/05/20 07:19:54;;;;;;;12.85;4.88;;;;;;;17.27;42.13;95761.56;4176919;28;20118;-51
2022/05/20 07:21:56;;;;;;;9.88;4.55;;;;;;;17.46;41.89;95753.16;4176432;28;20052;-53
2022/05/20 07:23:58;;;;;;;12.43;4.72;;;;;;;17.63;40.92;95753.88;4175076;28;20198;-54
2022/05/20 07:26:01;;;;;;;9.02;4.30;;;;;;;17.72;40.10;95757.28;4176658;28;20045;-53
2022/05/20 07:28:03;;;;;;;9.32;5.10;;;;;;;17.82;39.94;95755.25;4176572;28;20053;-51
2022/05/20 07:30:07;;;;;;;7.65;4.00;;;;;;;17.94;39.66;95750.34;4176451;28;20106;-49
2022/05/20 07:32:08;;;;;;;8.82;4.45;;;;;;;18.10;39.51;95749.38;4176288;28;20090;-54
2022/05/20 07:34:12;;;;;;;9.45;4.05;;;;;;;17.86;39.16;95756.53;4175966;28;20084;-52
2022/05/20 07:36:13;;;;;;;6.18;3.10;;;;;;;17.79;38.79;95742.34;4176584;28;20144;-51
2022/05/20 07:38:15;;;;;;;13.60;5.57;;;;;;;17.68;38.25;95746.22;4173071;28;20115;-53
2022/05/20 07:40:18;;;;;;;14.05;4.78;;;;;;;17.74;38.42;95744.69;4164303;28;20057;-54
2022/05/20 07:42:21;;;;;;;7.40;3.25;;;;;;;17.54;38.58;95750.47;4175775;28;20441;-51
2022/05/20 07:44:23;;;;;;;9.60;4.72;;;;;;;17.25;39.15;95755.59;4176234;28;20075;-53
2022/05/20 07:46:25;;;;;;;8.98;5.15;;;;;;;17.25;39.35;95752.97;4176095;28;20052;-53
2022/05/20 07:48:28;;;;;;;6.72;3.72;;;;;;;17.45;38.96;95750.69;4176078;28;20057;-52
2022/05/20 07:50:34;;;;;;;9.63;3.35;;;;;;;17.77;38.53;95752.28;4176247;28;20477;-53
2022/05/20 07:55:05;;;;;;;9.13;3.75;;;;;;;18.36;38.42;95739.16;4175104;28;20110;-54
2022/05/20 07:57:13;;;;;;;8.10;3.10;;;;;;;18.62;38.11;95737.88;4168676;28;20537;-52
2022/05/20 07:59:19;;;;;;;9.05;3.70;;;;;;;18.79;37.32;95735.91;4176244;28;20059;-55
2022/05/20 08:01:26;;;;;;;6.80;3.80;;;;;;;18.94;36.88;95733.22;4176237;28;20056;-52
2022/05/20 08:05:50;;;;;;;10.70;3.67;;;;;;;19.22;36.43;95722.72;4174916;28;20061;-52
2022/05/20 08:07:56;;;;;;;5.72;3.65;;;;;;;19.36;36.57;95719.22;4174613;28;20045;-51
2022/05/20 08:10:11;;;;;;;10.77;3.45;;;;;;;19.31;36.25;95726.09;4176042;28;20064;-52
2022/05/20 08:12:13;;;;;;;11.85;3.40;;;;;;;19.12;36.55;95722.19;4175767;28;20076;-55
2022/05/20 08:14:21;;;;;;;7.45;3.40;;;;;;;19.09;36.39;95722.59;4176117;28;20128;-54
2022/05/20 08:16:22;;;;;;;6.13;3.20;;;;;;;19.10;35.58;95730.38;4175628;28;20187;-53
2022/05/20 08:18:24;;;;;;;5.43;2.95;;;;;;;19.26;35.69;95725.84;4175384;28;20369;-53
2022/05/20 08:20:28;;;;;;;6.75;3.10;;;;;;;19.39;35.55;95720.66;4175657;28;20110;-54
2022/05/20 08:22:30;;;;;;;6.30;3.08;;;;;;;19.16;34.79;95724.28;4173773;28;20064;-55
2022/05/20 08:24:32;;;;;;;6.75;3.33;;;;;;;19.33;35.56;95710.78;4175796;28;20060;-54
2022/05/20 08:26:34;;;;;;;8.18;2.95;;;;;;;19.34;35.57;95709.78;4175574;28;20049;-52
2022/05/20 08:28:36;;;;;;;7.28;3.05;;;;;;;19.22;35.35;95722.72;4175563;28;20068;-54
2022/05/20 08:30:38;;;;;;;7.38;2.88;;;;;;;19.32;34.73;95707.31;4175889;28;20057;-48
2022/05/20 08:32:39;;;;;;;5.93;2.67;;;;;;;19.47;35.63;95709.06;4175395;28;20060;-51
2022/05/20 08:34:45;;;;;;;4.72;1.90;;;;;;;19.53;33.10;95703.84;4175964;28;20130;-51
2022/05/20 08:36:46;;;;;;;6.88;2.58;;;;;;;19.50;34.61;95704.22;4175401;28;20061;-52
2022/05/20 08:38:48;;;;;;;5.45;2.30;;;;;;;19.33;33.54;95698.31;4166817;28;20053;-52
2022/05/20 08:40:50;;;;;;;7.93;2.25;;;;;;;19.55;33.74;95693.84;4168539;28;20049;-52
2022/05/20 08:42:54;;;;;;;4.47;2.03;;;;;;;19.87;33.15;95698.84;4160320;28;20061;-49
2022/05/20 08:44:57;;;;;;;5.00;2.10;;;;;;;20.12;32.74;95696.56;4174044;28;20061;-52
2022/05/20 08:47:44;;;;;;;5.82;1.75;;;;;;;20.40;33.42;95697.38;4159076;28;20212;-54
2022/05/20 08:49:46;;;;;;;3.53;1.60;;;;;;;20.56;32.29;95695.41;4157727;28;20106;-53
2022/05/20 08:51:51;;;;;;;3.20;1.83;;;;;;;20.61;31.68;95690.34;4169245;28;20064;-56
2022/05/20 08:53:53;;;;;;;6.72;1.77;;;;;;;20.69;31.41;95692.00;4176016;28;20065;-52
2022/05/20 08:56:03;;;;;;;6.68;1.75;;;;;;;20.83;31.20;95697.19;4179037;28;20118;-53
2022/05/20 08:58:05;;;;;;;6.85;1.77;;;;;;;21.01;31.75;95688.66;4177372;28;20056;-53
2022/05/20 09:00:10;;;;;;;3.28;1.77;;;;;;;21.06;30.94;95685.41;4178865;28;20424;-53
2022/05/20 09:02:12;;;;;;;8.07;2.03;;;;;;;21.20;31.37;95678.25;4160531;28;20564;-52
2022/05/20 09:04:16;;;;;;;7.13;2.00;;;;;;;21.20;31.30;95673.75;4178762;28;20060;-58
2022/05/20 09:06:17;;;;;;;7.40;2.10;;;;;;;21.30;31.79;95670.72;4178592;28;20057;-54
2022/05/20 09:08:28;;;;;;;3.13;2.00;;;;;;;21.43;31.26;95667.28;4175690;28;20157;-55
2022/05/20 09:10:30;;;;;;;3.20;1.77;;;;;;;21.47;30.68;95657.84;4178853;28;20457;-54
2022/05/20 09:12:36;;;;;;;4.95;1.70;;;;;;;21.45;29.92;95652.72;4166477;28;20119;-54
2022/05/20 09:17:11;;;;;;;4.68;1.92;;;;;;;21.67;30.18;95655.19;4162214;28;20138;-56
2022/05/20 09:19:24;;;;;;;4.07;1.70;;;;;;;21.81;30.21;95650.66;4162499;28;20053;-54
2022/05/20 09:21:27;;;;;;;5.27;3.07;;;;;;;21.91;29.95;95640.41;4178152;28;20129;-56
2022/05/20 09:23:29;;;;;;;4.00;1.90;;;;;;;21.94;29.71;95633.84;4177067;28;20760;-55
2022/05/20 09:25:34;;;;;;;6.43;1.95;;;;;;;21.89;30.38;95637.13;4178504;28;20103;-54
2022/05/20 09:27:36;;;;;;;3.35;1.80;;;;;;;21.93;30.85;95630.34;4178223;28;20056;-55
2022/05/20 09:29:58;;;;;;;5.07;1.75;;;;;;;22.01;30.23;95630.13;4176723;28;20053;-55
2022/05/20 09:32:03;;;;;;;5.68;1.80;;;;;;;22.19;29.20;95626.81;4178387;28;20122;-54
2022/05/20 09:34:16;;;;;;;3.08;1.98;;;;;;;21.82;28.75;95622.97;4176827;28;20462;-55
2022/05/20 09:36:46;;;;;;;10.02;2.00;;;;;;;21.65;28.62;95623.38;4178427;28;20099;-53
2022/05/20 09:38:48;;;;;;;4.75;1.90;;;;;;;21.44;29.27;95628.91;4160145;28;20585;-52
2022/05/20 09:40:51;;;;;;;3.60;1.50;;;;;;;21.46;28.59;95621.53;4165235;28;20067;-57
2022/05/20 09:43:25;;;;;;;3.35;1.67;;;;;;;21.56;26.49;95623.81;4163400;28;20045;-55
2022/05/20 09:45:27;;;;;;;;;;;;;;;21.24;26.45;95612.88;4162286;28;20049;-54
2022/05/20 09:47:41;;;;;;;4.57;1.58;;;;;;;21.11;26.84;95610.22;4161367;28;19921;-54
2022/05/20 09:49:47;;;;;;;5.07;1.70;;;;;;;21.26;27.40;95614.31;4160165;28;20541;-51
2022/05/20 09:51:54;;;;;;;3.22;1.45;;;;;;;21.38;24.29;95611.03;4167267;28;20152;-53
2022/05/20 09:54:28;;;;;;;3.30;1.30;;;;;;;21.44;24.13;95615.59;4176621;28;20056;-52
2022/05/20 09:56:32;;;;;;;4.88;1.23;;;;;;;21.81;24.83;95613.31;4178220;28;20139;-52
2022/05/20 09:58:34;;;;;;;3.90;1.35;;;;;;;21.93;23.45;95603.69;4176952;28;20083;-51
2022/05/20 10:00:36;;;;;;;3.70;1.50;;;;;;;21.86;23.19;95608.22;4178142;28;20390;-56
2022/05/20 10:02:50;;;;;;;2.65;1.38;;;;;;;21.57;23.55;95607.59;4174666;28;20247;-54
2022/05/20 10:05:31;;;;;;;5.38;1.65;;;;;;;21.73;24.21;95602.91;4176602;28;20068;-54
2022/05/20 10:07:54;;;;;;;4.15;1.50;;;;;;;21.83;24.53;95600.59;4174554;28;20044;-54
2022/05/20 10:10:08;;;;;;;9.75;1.75;;;;;;;21.84;24.23;95597.75;4177901;28;20055;-53
2022/05/20 10:12:20;;;;;;;3.63;1.52;;;;;;;22.05;24.49;95587.88;4176269;28;20143;-55
2022/05/20 10:14:27;;;;;;;4.85;1.42;;;;;;;22.16;23.68;95594.41;4176495;28;20049;-53
2022/05/20 10:16:50;;;;;;;3.03;1.38;;;;;;;21.82;23.74;95581.13;4176188;28;20045;-53